createdAt,value
2022-10-09T00:01:20.794Z,2.47
2022-10-09T00:03:50.717Z,2.30
2022-10-09T00:06:20.909Z,2.33
2022-10-09T00:08:48.977Z,2.60
2022-10-09T00:11:20.091Z,2.60
2022-10-09T00:13:50.346Z,2.70
2022-10-09T00:16:19.513Z,2.63
2022-10-09T00:18:47.988Z,2.30
2022-10-09T00:21:19.457Z,2.40
2022-10-09T00:23:47.578Z,2.33
2022-10-09T00:26:16.367Z,2.47
2022-10-09T00:28:44.313Z,2.20
2022-10-09T00:31:15.123Z,2.13
2022-10-09T00:33:43.984Z,2.30
2022-10-09T00:36:14.670Z,2.37
2022-10-09T00:38:43.127Z,2.40
2022-10-09T00:41:15.873Z,2.33
2022-10-09T00:43:51.229Z,1.93
2022-10-09T00:46:26.844Z,2.60
2022-10-09T00:49:03.803Z,2.77
2022-10-09T00:51:37.458Z,2.30
2022-10-09T00:54:09.776Z,2.30
2022-10-09T00:56:37.502Z,2.30
2022-10-09T00:59:06.480Z,3.00
2022-10-09T01:01:35.883Z,2.17
2022-10-09T01:04:03.896Z,2.53
2022-10-09T01:06:45.860Z,2.67
2022-10-09T01:09:16.980Z,2.20
2022-10-09T01:11:51.050Z,2.20
2022-10-09T01:14:24.206Z,1.90
2022-10-09T01:16:58.666Z,2.10
2022-10-09T01:19:42.213Z,2.10
2022-10-09T01:22:22.781Z,2.10
2022-10-09T01:24:56.096Z,2.47
2022-10-09T01:27:26.474Z,2.20
2022-10-09T01:29:57.943Z,2.20
2022-10-09T01:32:31.940Z,2.13
2022-10-09T01:35:00.989Z,2.20
2022-10-09T01:37:31.520Z,2.00
2022-10-09T01:39:59.866Z,2.07
2022-10-09T01:42:30.540Z,2.20
2022-10-09T01:44:58.378Z,2.30
2022-10-09T01:47:26.365Z,2.20
2022-10-09T01:49:57.463Z,2.33
2022-10-09T01:52:43.002Z,2.60
2022-10-09T01:55:21.967Z,2.17
2022-10-09T01:57:56.405Z,2.17
2022-10-09T02:00:24.662Z,2.00
2022-10-09T02:02:54.149Z,2.10
2022-10-09T02:05:24.392Z,2.63
2022-10-09T02:07:52.805Z,4.77
2022-10-09T02:10:23.239Z,2.30
2022-10-09T02:12:56.184Z,2.47
2022-10-09T02:15:28.063Z,2.13
2022-10-09T02:18:00.140Z,2.33
2022-10-09T02:20:33.951Z,2.33
2022-10-09T02:23:06.161Z,2.47
2022-10-09T02:25:34.839Z,2.03
2022-10-09T02:28:05.658Z,2.30
2022-10-09T02:30:43.087Z,2.17
2022-10-09T02:33:11.182Z,2.20
2022-10-09T02:35:39.531Z,2.27
2022-10-09T02:38:07.292Z,2.23
2022-10-09T02:40:35.481Z,2.10
2022-10-09T02:43:05.091Z,2.07
2022-10-09T02:45:32.892Z,2.27
2022-10-09T02:48:01.029Z,2.43
2022-10-09T02:50:28.775Z,2.37
2022-10-09T02:52:56.704Z,2.07
2022-10-09T02:55:24.727Z,2.03
2022-10-09T02:57:52.601Z,2.30
2022-10-09T03:00:22.050Z,2.47
2022-10-09T03:02:50.236Z,2.37
2022-10-09T03:05:18.751Z,2.40
2022-10-09T03:07:51.506Z,2.20
2022-10-09T03:10:20.091Z,2.27
2022-10-09T03:12:48.745Z,2.43
2022-10-09T03:15:17.889Z,2.40
2022-10-09T03:17:47.187Z,2.93
2022-10-09T03:20:15.568Z,2.50
2022-10-09T03:22:43.519Z,2.37
2022-10-09T03:25:11.527Z,2.13
2022-10-09T03:27:39.468Z,2.40
2022-10-09T03:30:08.382Z,2.50
2022-10-09T03:32:36.252Z,2.20
2022-10-09T03:35:06.707Z,2.07
2022-10-09T03:37:34.834Z,2.20
2022-10-09T03:40:02.952Z,2.00
2022-10-09T03:42:30.770Z,2.00
2022-10-09T03:45:01.015Z,2.30
2022-10-09T03:47:29.058Z,2.20
2022-10-09T03:49:57.112Z,2.17
2022-10-09T03:52:27.150Z,2.20
2022-10-09T03:54:55.210Z,2.13
2022-10-09T03:57:23.052Z,2.10
2022-10-09T03:59:51.939Z,2.10
2022-10-09T04:02:20.153Z,3.00
2022-10-09T04:04:48.374Z,2.30
2022-10-09T04:07:16.604Z,2.00
2022-10-09T04:09:46.040Z,2.00
2022-10-09T04:12:13.877Z,2.00
2022-10-09T04:14:41.604Z,2.07
2022-10-09T04:17:09.495Z,2.17
2022-10-09T04:19:37.276Z,1.93
2022-10-09T04:22:05.443Z,2.20
2022-10-09T04:24:33.291Z,2.07
2022-10-09T04:27:03.028Z,2.47
2022-10-09T04:29:31.066Z,2.67
2022-10-09T04:31:59.243Z,1.90
2022-10-09T04:34:27.305Z,2.37
2022-10-09T04:36:56.603Z,1.97
2022-10-09T04:39:24.775Z,2.00
2022-10-09T04:41:52.656Z,1.80
2022-10-09T04:44:23.635Z,2.10
2022-10-09T04:46:52.151Z,2.10
2022-10-09T04:49:20.075Z,2.23
2022-10-09T04:51:48.290Z,2.20
2022-10-09T04:54:16.724Z,2.10
2022-10-09T04:56:44.752Z,1.90
2022-10-09T04:59:12.660Z,2.20
2022-10-09T05:01:42.454Z,1.90
2022-10-09T05:04:11.853Z,1.70
2022-10-09T05:06:39.930Z,2.10
2022-10-09T05:09:07.941Z,1.90
2022-10-09T05:11:40.383Z,1.97
2022-10-09T05:14:10.604Z,1.80
2022-10-09T05:17:08.163Z,2.07
2022-10-09T05:19:28.479Z,2.30
2022-10-09T05:21:56.437Z,2.07
2022-10-09T05:24:24.562Z,2.13
2022-10-09T05:26:52.740Z,2.10
2022-10-09T05:29:20.831Z,1.90
2022-10-09T05:31:49.801Z,1.80
2022-10-09T05:34:17.791Z,2.30
2022-10-09T05:36:47.520Z,2.10
2022-10-09T05:39:15.676Z,2.13
2022-10-09T05:41:43.524Z,1.90
2022-10-09T05:44:12.172Z,1.90
2022-10-09T05:46:39.886Z,2.30
2022-10-09T05:49:09.797Z,2.50
2022-10-09T05:51:40.325Z,2.37
2022-10-09T05:54:15.372Z,2.07
2022-10-09T05:56:44.422Z,2.03
2022-10-09T05:59:15.251Z,2.73
2022-10-09T06:01:45.410Z,1.97
2022-10-09T06:04:16.482Z,1.90
2022-10-09T06:06:44.895Z,2.20
2022-10-09T06:09:16.111Z,3.00
2022-10-09T06:11:44.943Z,2.07
2022-10-09T06:14:14.033Z,2.47
2022-10-09T06:16:45.331Z,2.57
2022-10-09T06:19:15.279Z,2.30
2022-10-09T06:21:43.722Z,2.17
2022-10-09T06:24:17.701Z,2.07
2022-10-09T06:26:45.511Z,2.20
2022-10-09T06:29:13.719Z,2.30
2022-10-09T06:31:41.511Z,2.20
2022-10-09T06:34:11.364Z,2.50
2022-10-09T06:36:39.263Z,2.00
2022-10-09T06:39:08.540Z,1.93
2022-10-09T06:41:38.259Z,2.90
2022-10-09T06:44:14.002Z,2.50
2022-10-09T06:46:45.978Z,2.43
2022-10-09T06:49:14.123Z,2.43
2022-10-09T06:51:42.324Z,2.73
2022-10-09T06:54:13.140Z,2.50
2022-10-09T06:56:44.545Z,2.47
2022-10-09T06:59:12.826Z,2.63
2022-10-09T07:01:40.974Z,2.67
2022-10-09T07:04:12.213Z,2.70
2022-10-09T07:06:42.694Z,2.50
2022-10-09T07:09:13.014Z,2.70
2022-10-09T07:11:44.599Z,2.63
2022-10-09T07:14:16.093Z,2.43
2022-10-09T07:16:45.847Z,2.60
2022-10-09T07:19:15.103Z,2.60
2022-10-09T07:21:46.320Z,2.67
2022-10-09T07:24:14.826Z,2.60
2022-10-09T07:26:47.115Z,2.97
2022-10-09T07:29:17.498Z,2.50
2022-10-09T07:31:45.440Z,2.77
2022-10-09T07:34:13.595Z,2.97
2022-10-09T07:36:41.695Z,2.40
2022-10-09T07:39:10.978Z,3.10
2022-10-09T07:41:39.154Z,3.40
2022-10-09T07:44:08.395Z,2.97
2022-10-09T07:46:36.356Z,2.80
2022-10-09T07:49:04.903Z,2.97
2022-10-09T07:51:33.758Z,2.60
2022-10-09T07:54:02.417Z,2.50
2022-10-09T07:56:31.789Z,2.93
2022-10-09T07:59:01.434Z,2.90
2022-10-09T08:01:32.623Z,2.80
2022-10-09T08:04:01.393Z,2.83
2022-10-09T08:06:29.540Z,2.57
2022-10-09T08:08:59.383Z,2.77
2022-10-09T08:11:28.891Z,2.40
2022-10-09T08:13:57.730Z,2.50
2022-10-09T08:16:27.039Z,2.60
2022-10-09T08:19:02.041Z,2.97
2022-10-09T08:21:30.487Z,3.40
2022-10-09T08:23:59.928Z,2.67
2022-10-09T08:26:30.632Z,3.00
2022-10-09T08:29:00.721Z,2.53
2022-10-09T08:31:29.891Z,2.20
2022-10-09T08:34:00.981Z,2.53
2022-10-09T08:36:29.065Z,2.73
2022-10-09T08:38:57.322Z,2.73
2022-10-09T08:41:38.748Z,2.73
2022-10-09T08:44:11.291Z,2.83
2022-10-09T08:46:51.006Z,2.70
2022-10-09T08:49:26.392Z,2.50
2022-10-09T08:51:57.500Z,2.60
2022-10-09T08:54:34.404Z,2.40
2022-10-09T08:57:07.054Z,2.43
2022-10-09T08:59:35.377Z,2.57
2022-10-09T09:02:09.951Z,2.40
2022-10-09T09:05:00.881Z,2.37
2022-10-09T09:07:35.713Z,2.30
2022-10-09T09:10:10.845Z,1.93
2022-10-09T09:12:47.684Z,2.07
2022-10-09T09:15:25.521Z,2.37
2022-10-09T09:17:58.754Z,2.30
2022-10-09T09:20:32.125Z,2.67
2022-10-09T09:23:02.746Z,2.20
2022-10-09T09:25:34.953Z,2.40
2022-10-09T09:28:13.750Z,2.40
2022-10-09T09:30:47.701Z,2.43
2022-10-09T09:33:24.619Z,1.73
2022-10-09T09:36:06.764Z,1.97
2022-10-09T09:38:43.682Z,2.30
2022-10-09T09:41:22.534Z,2.43
2022-10-09T09:43:52.756Z,2.33
2022-10-09T09:46:25.145Z,2.20
2022-10-09T09:48:53.837Z,2.00
2022-10-09T09:51:29.158Z,1.87
2022-10-09T09:53:59.640Z,2.00
2022-10-09T09:57:10.489Z,2.20
2022-10-09T09:59:33.588Z,2.30
2022-10-09T10:02:03.462Z,2.30
2022-10-09T10:04:32.051Z,2.20
2022-10-09T10:07:03.465Z,1.90
2022-10-09T10:09:32.087Z,1.87
2022-10-09T10:12:03.619Z,2.27
2022-10-09T10:14:32.459Z,1.90
2022-10-09T10:17:02.143Z,1.67
2022-10-09T10:19:31.863Z,1.40
2022-10-09T10:22:03.159Z,1.37
2022-10-09T10:24:34.366Z,1.80
2022-10-09T10:27:06.087Z,1.50
2022-10-09T10:29:37.753Z,1.70
2022-10-09T10:32:14.122Z,1.90
2022-10-09T10:34:47.192Z,1.50
2022-10-09T10:37:44.166Z,1.70
2022-10-09T10:40:17.984Z,1.63
2022-10-09T10:42:57.512Z,1.80
2022-10-09T10:45:34.989Z,1.60
2022-10-09T10:48:05.080Z,1.57
2022-10-09T10:50:42.817Z,1.60
2022-10-09T10:53:20.518Z,1.60
2022-10-09T10:55:55.387Z,1.47
2022-10-09T10:58:28.041Z,1.53
2022-10-09T11:01:15.379Z,1.67
2022-10-09T11:03:58.184Z,1.70
2022-10-09T11:06:35.064Z,1.50
2022-10-09T11:09:16.351Z,1.47
2022-10-09T11:11:49.774Z,1.53
2022-10-09T11:14:31.245Z,1.30
2022-10-09T11:17:07.285Z,2.30
2022-10-09T11:19:59.374Z,4.33
2022-10-09T11:22:54.174Z,1.50
2022-10-09T11:25:43.281Z,1.50
2022-10-09T11:28:14.546Z,1.50
2022-10-09T11:30:47.540Z,1.10
2022-10-09T11:33:28.531Z,1.70
2022-10-09T11:36:02.355Z,1.23
2022-10-09T11:38:33.811Z,1.47
2022-10-09T11:41:05.196Z,1.40
2022-10-09T11:43:54.279Z,1.30
2022-10-09T11:46:32.329Z,1.30
2022-10-09T11:49:06.116Z,1.30
2022-10-09T11:51:40.296Z,1.10
2022-10-09T11:54:16.040Z,1.10
2022-10-09T11:56:55.964Z,1.10
2022-10-09T11:59:29.847Z,1.20
2022-10-09T12:02:00.792Z,1.20
2022-10-09T12:07:29.958Z,2.73
2022-10-09T12:10:03.703Z,1.50
2022-10-09T12:12:34.589Z,1.53
2022-10-09T12:15:13.371Z,1.30
2022-10-09T12:17:50.161Z,1.30
2022-10-09T12:20:21.491Z,1.43
2022-10-09T12:23:21.370Z,1.30
2022-10-09T12:25:45.740Z,1.40
2022-10-09T12:28:21.571Z,1.47
2022-10-09T12:30:51.985Z,1.73
2022-10-09T12:33:25.822Z,1.60
2022-10-09T12:36:03.985Z,1.50
2022-10-09T12:38:33.018Z,1.20
2022-10-09T12:41:04.074Z,1.20
2022-10-09T12:43:34.344Z,1.30
2022-10-09T12:46:02.735Z,1.33
2022-10-09T12:48:38.185Z,1.27
2022-10-09T12:51:17.284Z,1.17
2022-10-09T12:53:50.214Z,1.43
2022-10-09T12:56:23.801Z,1.73
2022-10-09T12:58:54.899Z,1.20
2022-10-09T13:01:23.884Z,1.30
2022-10-09T13:03:57.795Z,1.20
2022-10-09T13:06:28.817Z,1.07
2022-10-09T13:08:59.138Z,1.10
2022-10-09T13:11:34.954Z,1.40
2022-10-09T13:14:05.095Z,1.40
2022-10-09T13:16:44.996Z,1.40
2022-10-09T13:19:24.396Z,1.20
2022-10-09T13:22:20.099Z,1.30
2022-10-09T13:24:48.359Z,1.10
2022-10-09T13:27:16.552Z,1.20
2022-10-09T13:29:46.658Z,1.20
2022-10-09T13:32:16.243Z,1.50
2022-10-09T13:34:44.650Z,1.33
2022-10-09T13:37:15.594Z,1.30
2022-10-09T13:39:43.527Z,1.13
2022-10-09T13:42:12.991Z,1.25
2022-10-09T13:44:41.032Z,1.17
2022-10-09T13:47:10.361Z,1.45
2022-10-09T13:49:38.308Z,1.48
2022-10-09T13:52:06.246Z,1.30
2022-10-09T13:54:34.272Z,1.20
2022-10-09T13:57:03.403Z,1.10
2022-10-09T13:59:32.585Z,1.35
2022-10-09T14:02:01.105Z,1.38
2022-10-09T14:04:32.323Z,1.20
2022-10-09T14:07:00.498Z,1.30
2022-10-09T14:09:28.386Z,1.25
2022-10-09T14:11:56.502Z,1.40
2022-10-09T14:14:24.175Z,1.00
2022-10-09T14:16:51.928Z,1.42
2022-10-09T14:19:19.827Z,1.30
2022-10-09T14:21:49.224Z,1.45
2022-10-09T14:24:18.874Z,1.30
2022-10-09T14:26:51.386Z,1.45
2022-10-09T14:29:19.861Z,1.17
2022-10-09T14:31:48.050Z,1.30
2022-10-09T14:34:16.130Z,1.33
2022-10-09T14:36:43.927Z,2.35
2022-10-09T14:39:14.303Z,2.42
2022-10-09T14:41:42.708Z,1.33
2022-10-09T14:44:11.072Z,3.75
2022-10-09T14:46:39.689Z,1.48
2022-10-09T14:49:09.426Z,1.85
2022-10-09T14:51:39.678Z,1.48
2022-10-09T14:54:09.020Z,1.42
2022-10-09T14:56:38.915Z,1.25
2022-10-09T14:59:07.520Z,1.25
2022-10-09T15:01:36.661Z,0.98
2022-10-09T15:04:05.821Z,1.30
2022-10-09T15:06:34.499Z,1.23
2022-10-09T15:09:05.672Z,1.30
2022-10-09T15:11:35.445Z,1.80
2022-10-09T15:14:05.789Z,1.35
2022-10-09T15:16:34.145Z,1.42
2022-10-09T15:19:02.651Z,1.40
2022-10-09T15:21:32.575Z,1.38
2022-10-09T15:24:02.228Z,0.95
2022-10-09T15:26:32.830Z,1.10
2022-10-09T15:29:02.736Z,1.20
2022-10-09T15:31:34.007Z,1.10
2022-10-09T15:34:04.110Z,1.05
2022-10-09T15:36:35.467Z,1.00
2022-10-09T15:39:06.186Z,1.13
2022-10-09T15:41:37.125Z,1.20
2022-10-09T15:44:06.939Z,1.33
2022-10-09T15:46:36.386Z,1.20
2022-10-09T15:49:04.412Z,1.60
2022-10-09T15:51:33.993Z,1.40
2022-10-09T15:54:02.375Z,2.28
2022-10-09T15:56:31.762Z,1.75
2022-10-09T15:59:01.604Z,1.57
2022-10-09T16:01:30.125Z,1.60
2022-10-09T16:03:59.803Z,1.70
2022-10-09T16:06:27.968Z,1.98
2022-10-09T16:08:57.884Z,1.73
2022-10-09T16:11:26.980Z,1.52
2022-10-09T16:13:56.311Z,1.60
2022-10-09T16:16:25.632Z,1.30
2022-10-09T16:18:53.523Z,1.50
2022-10-09T16:21:24.653Z,1.30
2022-10-09T16:23:57.536Z,2.20
2022-10-09T16:26:27.862Z,1.47
2022-10-09T16:28:55.776Z,1.50
2022-10-09T16:31:26.006Z,1.77
2022-10-09T16:33:54.263Z,1.57
2022-10-09T16:36:23.719Z,1.70
2022-10-09T16:38:52.721Z,2.07
2022-10-09T16:41:23.070Z,2.20
2022-10-09T16:43:53.507Z,2.67
2022-10-09T16:46:23.366Z,2.80
2022-10-09T16:48:52.571Z,2.50
2022-10-09T16:51:24.564Z,2.20
2022-10-09T16:53:53.906Z,2.30
2022-10-09T16:56:23.888Z,2.50
2022-10-09T16:58:55.833Z,2.80
2022-10-09T17:01:24.130Z,2.77
2022-10-09T17:03:52.506Z,2.40
2022-10-09T17:06:21.024Z,3.07
2022-10-09T17:08:51.215Z,2.87
2022-10-09T17:11:19.895Z,2.60
2022-10-09T17:13:48.430Z,2.60
2022-10-09T17:16:19.003Z,1.70
2022-10-09T17:18:47.468Z,1.90
2022-10-09T17:21:17.400Z,1.70
2022-10-09T17:23:47.999Z,1.60
2022-10-09T17:26:20.589Z,1.80
2022-10-09T17:28:49.336Z,1.23
2022-10-09T17:31:19.530Z,1.40
2022-10-09T17:33:49.068Z,1.40
2022-10-09T17:36:19.270Z,1.50
2022-10-09T17:38:47.795Z,1.30
2022-10-09T17:41:18.680Z,1.40
2022-10-09T17:43:46.468Z,1.50
2022-10-09T17:46:14.928Z,1.50
2022-10-09T17:48:45.279Z,1.70
2022-10-09T17:51:17.026Z,1.57
2022-10-09T17:53:45.314Z,1.90
2022-10-09T17:56:13.873Z,1.90
2022-10-09T17:58:44.756Z,1.70
2022-10-09T18:01:14.402Z,1.60
2022-10-09T18:03:43.000Z,2.10
2022-10-09T18:06:12.307Z,1.70
2022-10-09T18:08:40.699Z,1.70
2022-10-09T18:11:10.437Z,1.40
2022-10-09T18:13:40.406Z,1.50
2022-10-09T18:16:11.558Z,1.80
2022-10-09T18:18:39.698Z,1.60
2022-10-09T18:21:09.851Z,1.50
2022-10-09T18:23:38.369Z,1.50
2022-10-09T18:26:08.752Z,1.30
2022-10-09T18:28:37.051Z,1.90
2022-10-09T18:31:11.294Z,1.50
2022-10-09T18:33:40.021Z,1.43
2022-10-09T18:36:11.779Z,1.50
2022-10-09T18:38:39.669Z,1.40
2022-10-09T18:41:09.687Z,1.63
2022-10-09T18:43:37.616Z,1.70
2022-10-09T18:46:05.747Z,2.30
2022-10-09T18:48:38.310Z,3.10
2022-10-09T18:51:08.895Z,3.40
2022-10-09T18:53:39.396Z,3.30
2022-10-09T18:56:08.281Z,2.40
2022-10-09T18:58:37.028Z,1.67
2022-10-09T19:01:07.541Z,1.40
2022-10-09T19:03:37.672Z,1.50
2022-10-09T19:06:08.215Z,1.30
2022-10-09T19:08:37.905Z,1.73
2022-10-09T19:11:07.587Z,1.60
2022-10-09T19:13:35.509Z,1.40
2022-10-09T19:16:05.807Z,1.57
2022-10-09T19:18:36.222Z,1.30
2022-10-09T19:21:06.140Z,1.63
2022-10-09T19:23:34.645Z,1.37
2022-10-09T19:26:02.504Z,1.43
2022-10-09T19:28:37.889Z,1.30
2022-10-09T19:31:06.617Z,1.30
2022-10-09T19:33:34.835Z,1.40
2022-10-09T19:36:02.789Z,1.43
2022-10-09T19:38:32.979Z,1.13
2022-10-09T19:41:04.464Z,1.40
2022-10-09T19:43:32.995Z,1.50
2022-10-09T19:46:06.175Z,1.60
2022-10-09T19:48:35.920Z,1.40
2022-10-09T19:51:07.450Z,1.23
2022-10-09T19:53:37.204Z,1.30
2022-10-09T19:56:11.411Z,1.17
2022-10-09T19:58:41.712Z,1.23
2022-10-09T20:01:11.329Z,1.47
2022-10-09T20:03:39.388Z,1.50
2022-10-09T20:06:09.969Z,1.20
2022-10-09T20:08:41.112Z,1.50
2022-10-09T20:11:11.539Z,1.40
2022-10-09T20:13:40.830Z,1.57
2022-10-09T20:16:10.784Z,1.90
2022-10-09T20:18:42.122Z,2.43
2022-10-09T20:21:10.874Z,2.53
2022-10-09T20:23:40.525Z,2.60
2022-10-09T20:26:10.757Z,2.50
2022-10-09T20:28:39.698Z,2.20
2022-10-09T20:31:09.345Z,2.03
2022-10-09T20:33:39.330Z,1.93
2022-10-09T20:36:08.245Z,1.60
2022-10-09T20:38:36.693Z,1.50
2022-10-09T20:41:08.268Z,1.40
2022-10-09T20:43:36.743Z,1.60
2022-10-09T20:46:07.585Z,1.70
2022-10-09T20:48:35.495Z,1.30
2022-10-09T20:51:03.547Z,1.43
2022-10-09T20:53:31.652Z,1.33
2022-10-09T20:56:02.549Z,1.03
2022-10-09T20:58:31.919Z,2.07
2022-10-09T21:00:59.984Z,1.37
2022-10-09T21:03:27.930Z,1.30
2022-10-09T21:05:55.680Z,1.50
2022-10-09T21:08:23.528Z,1.47
2022-10-09T21:10:51.783Z,1.40
2022-10-09T21:13:19.628Z,1.30
2022-10-09T21:15:50.954Z,1.60
2022-10-09T21:18:20.694Z,1.33
2022-10-09T21:20:49.546Z,1.50
2022-10-09T21:23:19.744Z,1.20
2022-10-09T21:25:49.223Z,1.17
2022-10-09T21:28:17.364Z,1.00
2022-10-09T21:30:45.286Z,1.40
2022-10-09T21:33:15.362Z,1.40
2022-10-09T21:35:44.756Z,1.20
2022-10-09T21:38:14.475Z,1.23
2022-10-09T21:40:42.878Z,1.40
2022-10-09T21:43:11.478Z,1.40
2022-10-09T21:45:40.140Z,1.20
2022-10-09T21:48:08.805Z,1.23
2022-10-09T21:50:38.185Z,1.30
2022-10-09T21:53:06.189Z,1.43
2022-10-09T21:55:34.360Z,1.90
2022-10-09T21:58:02.969Z,1.40
2022-10-09T22:00:30.735Z,1.20
2022-10-09T22:02:58.523Z,1.57
2022-10-09T22:05:26.676Z,1.70
2022-10-09T22:07:56.104Z,1.30
2022-10-09T22:10:23.981Z,1.50
2022-10-09T22:12:52.303Z,1.30
2022-10-09T22:15:20.274Z,1.43
2022-10-09T22:17:49.008Z,1.57
2022-10-09T22:20:17.462Z,1.50
2022-10-09T22:22:46.063Z,1.30
2022-10-09T22:25:15.778Z,1.30
2022-10-09T22:27:43.541Z,2.80
2022-10-09T22:30:12.706Z,1.30
2022-10-09T22:32:40.606Z,1.27
2022-10-09T22:35:09.989Z,1.37
2022-10-09T22:37:38.274Z,1.37
2022-10-09T22:40:07.124Z,1.50
2022-10-09T22:42:36.355Z,1.40
2022-10-09T22:45:05.762Z,1.20
2022-10-09T22:47:34.068Z,1.20
2022-10-09T22:50:01.875Z,1.27
2022-10-09T22:52:30.026Z,1.30
2022-10-09T22:54:57.857Z,1.23
2022-10-09T22:57:26.908Z,1.77
2022-10-09T22:59:56.039Z,1.37
2022-10-09T23:02:25.638Z,1.40
2022-10-09T23:04:53.351Z,1.50
2022-10-09T23:07:22.176Z,1.40
2022-10-09T23:09:50.032Z,1.40
2022-10-09T23:12:17.926Z,1.40
2022-10-09T23:14:45.861Z,1.20
2022-10-09T23:17:15.743Z,1.33
2022-10-09T23:19:43.505Z,1.30
2022-10-09T23:22:12.335Z,1.40
2022-10-09T23:24:40.395Z,1.20
2022-10-09T23:27:08.187Z,1.40
2022-10-09T23:29:35.935Z,2.17
2022-10-09T23:32:03.773Z,1.20
2022-10-09T23:34:33.028Z,1.20
2022-10-09T23:37:01.859Z,1.50
2022-10-09T23:39:30.023Z,1.40
2022-10-09T23:42:01.887Z,1.20
2022-10-09T23:44:30.440Z,1.40
2022-10-09T23:46:58.438Z,1.23
2022-10-09T23:49:26.313Z,1.47
2022-10-09T23:51:55.746Z,1.40
2022-10-09T23:54:23.844Z,1.40
2022-10-09T23:56:51.723Z,1.60
2022-10-09T23:59:20.991Z,1.40
